This is the latest recevied weather packets stored in our database for station/object K5NWZ. If no packets are shown the sender has not sent any weather packets the latest 10 day(s).
| Time | Temp. | Humidity | Pressure | Rain* | Wind** | Luminosity | Snow |
|---|---|---|---|---|---|---|---|
| 1788141806 | 20° C | 60% | 1027.7 hPa | 0 mm | - | 0 W/m² | - |
| 1788141502 | 20° C | 60% | 1027.4 hPa | 0 mm | - | 0 W/m² | - |
| 1788141198 | 20° C | 57% | 1027.5 hPa | 0 mm | - | 0 W/m² | - |
| 1788140897 | 20° C | 56% | 1027.2 hPa | 0 mm | - | 0 W/m² | - |
| 1788140592 | 20.56° C | 56% | 1027.3 hPa | 0 mm | - | 1 W/m² | - |
| 1788140288 | 20.56° C | 55% | 1027.2 hPa | 0 mm | - | 1 W/m² | - |
| 1788139988 | 20.56° C | 55% | 1027.3 hPa | 0 mm | - | 3 W/m² | - |
| 1788139683 | 21.11° C | 53% | 1027.2 hPa | 0 mm | - | 5 W/m² | - |
| 1788139378 | 21.11° C | 52% | 1027.2 hPa | 0 mm | - | 8 W/m² | - |
| 1788139077 | 21.11° C | 53% | 1027 hPa | 0 mm | - | 11 W/m² | - |
| 1788138773 | 21.67° C | 54% | 1027.3 hPa | 0 mm | - | 15 W/m² | - |
| 1788138468 | 21.67° C | 52% | 1027.2 hPa | 0 mm | - | 21 W/m² | - |
| 1788138162 | 22.22° C | 51% | 1027 hPa | 0 mm | - | 27 W/m² | - |
| 1788137858 | 22.78° C | 51% | 1027.2 hPa | 0 mm | - | 33 W/m² | - |
| 1788137553 | 22.78° C | 50% | 1027 hPa | 0 mm | - | 41 W/m² | - |
| 1788137249 | 22.22° C | 50% | 1027 hPa | 0 mm | - | 42 W/m² | - |
| 1788136945 | 22.78° C | 49% | 1027.2 hPa | 0 mm | - | 41 W/m² | - |
| 1788136640 | 22.78° C | 49% | 1027.3 hPa | 0 mm | - | 39 W/m² | - |
| 1788136336 | 22.78° C | 48% | 1027.3 hPa | 0 mm | - | 38 W/m² | - |
| 1788136035 | 22.78° C | 49% | 1026.9 hPa | 0 mm | - | 50 W/m² | - |
| 1788135729 | 22.78° C | 48% | 1027.3 hPa | 0 mm | - | 29 W/m² | - |
| 1788135426 | 22.78° C | 48% | 1027.4 hPa | 0 mm | - | 37 W/m² | - |
| 1788135126 | 22.78° C | 47% | 1027.5 hPa | 0 mm | - | 45 W/m² | - |
| 1788134823 | 23.33° C | 49% | 1027.4 hPa | 0 mm | - | 56 W/m² | - |
| 1788134518 | 22.78° C | 47% | 1027.6 hPa | 0 mm | - | 48 W/m² | - |
* Rain latest hour (hover to see other rain measurements)
** Current wind speed in m/s (hover to see current wind gust speed)